sensor_id;sensor_type;location;lat;lon;timestamp;P1;durP1;ratioP1;P2;durP2;ratioP2
32172;SDS011;18679;45.190;5.722;2023-06-10T00:00:26;6.28;;;4.53;;
32172;SDS011;18679;45.190;5.722;2023-06-10T00:03:27;8.63;;;5.30;;
32172;SDS011;18679;45.190;5.722;2023-06-10T00:06:28;7.72;;;5.07;;
32172;SDS011;18679;45.190;5.722;2023-06-10T00:09:36;10.30;;;4.70;;
32172;SDS011;18679;45.190;5.722;2023-06-10T00:12:37;9.60;;;4.53;;
32172;SDS011;18679;45.190;5.722;2023-06-10T00:15:38;7.00;;;4.63;;
32172;SDS011;18679;45.190;5.722;2023-06-10T00:18:39;7.25;;;4.55;;
32172;SDS011;18679;45.190;5.722;2023-06-10T00:21:40;7.15;;;4.05;;
32172;SDS011;18679;45.190;5.722;2023-06-10T00:24:41;10.88;;;4.45;;
32172;SDS011;18679;45.190;5.722;2023-06-10T00:27:42;7.60;;;4.20;;
32172;SDS011;18679;45.190;5.722;2023-06-10T00:30:43;9.05;;;4.40;;
32172;SDS011;18679;45.190;5.722;2023-06-10T00:33:44;6.07;;;4.47;;
32172;SDS011;18679;45.190;5.722;2023-06-10T00:36:45;7.63;;;4.57;;
32172;SDS011;18679;45.190;5.722;2023-06-10T00:39:46;8.45;;;4.45;;
32172;SDS011;18679;45.190;5.722;2023-06-10T00:42:46;9.63;;;4.60;;
32172;SDS011;18679;45.190;5.722;2023-06-10T00:45:47;8.88;;;4.53;;
32172;SDS011;18679;45.190;5.722;2023-06-10T00:48:49;9.18;;;3.78;;
32172;SDS011;18679;45.190;5.722;2023-06-10T00:51:50;7.22;;;4.07;;
32172;SDS011;18679;45.190;5.722;2023-06-10T00:54:52;5.75;;;4.22;;
32172;SDS011;18679;45.190;5.722;2023-06-10T00:57:53;10.93;;;4.65;;
32172;SDS011;18679;45.190;5.722;2023-06-10T01:00:54;10.00;;;4.43;;
32172;SDS011;18679;45.190;5.722;2023-06-10T01:03:55;9.52;;;3.92;;
32172;SDS011;18679;45.190;5.722;2023-06-10T01:10:27;8.32;;;3.97;;
32172;SDS011;18679;45.190;5.722;2023-06-10T01:13:35;6.40;;;3.88;;
32172;SDS011;18679;45.190;5.722;2023-06-10T01:16:38;9.10;;;4.93;;
32172;SDS011;18679;45.190;5.722;2023-06-10T01:19:41;6.32;;;4.10;;
32172;SDS011;18679;45.190;5.722;2023-06-10T01:22:44;10.38;;;4.10;;
32172;SDS011;18679;45.190;5.722;2023-06-10T01:25:58;13.25;;;4.85;;
32172;SDS011;18679;45.190;5.722;2023-06-10T01:29:04;6.88;;;4.60;;
32172;SDS011;18679;45.190;5.722;2023-06-10T01:32:28;8.77;;;4.18;;
32172;SDS011;18679;45.190;5.722;2023-06-10T01:35:35;7.90;;;4.00;;
32172;SDS011;18679;45.190;5.722;2023-06-10T01:38:45;5.65;;;3.80;;
32172;SDS011;18679;45.190;5.722;2023-06-10T01:41:48;5.88;;;3.55;;
32172;SDS011;18679;45.190;5.722;2023-06-10T01:44:49;8.80;;;4.88;;
32172;SDS011;18679;45.190;5.722;2023-06-10T01:47:50;9.85;;;5.10;;
32172;SDS011;18679;45.190;5.722;2023-06-10T01:50:51;8.32;;;5.30;;
32172;SDS011;18679;45.190;5.722;2023-06-10T01:53:52;10.05;;;4.63;;
32172;SDS011;18679;45.190;5.722;2023-06-10T01:56:54;8.45;;;4.82;;
32172;SDS011;18679;45.190;5.722;2023-06-10T01:59:55;8.00;;;4.45;;
32172;SDS011;18679;45.190;5.722;2023-06-10T02:02:56;7.88;;;4.72;;
32172;SDS011;18679;45.190;5.722;2023-06-10T02:05:57;10.52;;;4.75;;
32172;SDS011;18679;45.190;5.722;2023-06-10T02:08:58;9.30;;;4.65;;
32172;SDS011;18679;45.190;5.722;2023-06-10T02:11:58;6.68;;;4.45;;
32172;SDS011;18679;45.190;5.722;2023-06-10T02:14:59;11.27;;;4.72;;
32172;SDS011;18679;45.190;5.722;2023-06-10T02:18:00;9.05;;;4.57;;
32172;SDS011;18679;45.190;5.722;2023-06-10T02:21:01;6.15;;;4.45;;
32172;SDS011;18679;45.190;5.722;2023-06-10T02:24:02;7.45;;;4.68;;
32172;SDS011;18679;45.190;5.722;2023-06-10T02:27:04;10.70;;;5.25;;
32172;SDS011;18679;45.190;5.722;2023-06-10T02:30:07;12.88;;;4.55;;
32172;SDS011;18679;45.190;5.722;2023-06-10T02:33:10;7.93;;;4.93;;
32172;SDS011;18679;45.190;5.722;2023-06-10T02:36:12;7.63;;;4.40;;
32172;SDS011;18679;45.190;5.722;2023-06-10T02:39:13;9.75;;;5.15;;
32172;SDS011;18679;45.190;5.722;2023-06-10T02:42:14;9.70;;;5.00;;
32172;SDS011;18679;45.190;5.722;2023-06-10T02:45:15;10.70;;;5.43;;
32172;SDS011;18679;45.190;5.722;2023-06-10T02:48:18;11.52;;;5.53;;
32172;SDS011;18679;45.190;5.722;2023-06-10T02:51:18;7.50;;;4.80;;
32172;SDS011;18679;45.190;5.722;2023-06-10T02:54:23;6.80;;;4.80;;
32172;SDS011;18679;45.190;5.722;2023-06-10T02:57:25;10.95;;;4.93;;
32172;SDS011;18679;45.190;5.722;2023-06-10T03:00:26;7.93;;;4.95;;
32172;SDS011;18679;45.190;5.722;2023-06-10T03:03:27;5.28;;;3.90;;
32172;SDS011;18679;45.190;5.722;2023-06-10T03:06:37;8.77;;;4.50;;
32172;SDS011;18679;45.190;5.722;2023-06-10T03:09:48;8.50;;;4.20;;
32172;SDS011;18679;45.190;5.722;2023-06-10T03:12:51;13.18;;;3.72;;
32172;SDS011;18679;45.190;5.722;2023-06-10T03:15:52;6.60;;;3.90;;
32172;SDS011;18679;45.190;5.722;2023-06-10T03:18:55;5.43;;;3.80;;
32172;SDS011;18679;45.190;5.722;2023-06-10T03:21:58;5.88;;;3.83;;
32172;SDS011;18679;45.190;5.722;2023-06-10T03:25:15;15.90;;;4.00;;
32172;SDS011;18679;45.190;5.722;2023-06-10T03:28:21;9.35;;;4.75;;
32172;SDS011;18679;45.190;5.722;2023-06-10T03:31:22;11.32;;;3.92;;
32172;SDS011;18679;45.190;5.722;2023-06-10T03:34:26;12.20;;;4.50;;
32172;SDS011;18679;45.190;5.722;2023-06-10T03:37:27;8.48;;;4.20;;
32172;SDS011;18679;45.190;5.722;2023-06-10T03:40:28;6.20;;;4.10;;
32172;SDS011;18679;45.190;5.722;2023-06-10T03:43:31;7.68;;;3.88;;
32172;SDS011;18679;45.190;5.722;2023-06-10T03:46:32;7.40;;;4.05;;
32172;SDS011;18679;45.190;5.722;2023-06-10T03:49:33;9.90;;;4.22;;
32172;SDS011;18679;45.190;5.722;2023-06-10T03:52:38;7.05;;;4.05;;
32172;SDS011;18679;45.190;5.722;2023-06-10T03:55:40;9.82;;;4.93;;
32172;SDS011;18679;45.190;5.722;2023-06-10T03:58:42;7.53;;;4.47;;
32172;SDS011;18679;45.190;5.722;2023-06-10T04:01:43;9.68;;;4.90;;
32172;SDS011;18679;45.190;5.722;2023-06-10T04:04:44;6.75;;;4.18;;
32172;SDS011;18679;45.190;5.722;2023-06-10T04:07:45;10.25;;;4.65;;
32172;SDS011;18679;45.190;5.722;2023-06-10T04:10:49;9.95;;;4.65;;
32172;SDS011;18679;45.190;5.722;2023-06-10T04:13:51;13.68;;;4.57;;
32172;SDS011;18679;45.190;5.722;2023-06-10T04:16:53;6.53;;;4.50;;
32172;SDS011;18679;45.190;5.722;2023-06-10T04:19:54;6.85;;;4.07;;
32172;SDS011;18679;45.190;5.722;2023-06-10T04:22:58;7.05;;;4.35;;
32172;SDS011;18679;45.190;5.722;2023-06-10T04:26:00;10.98;;;4.65;;
32172;SDS011;18679;45.190;5.722;2023-06-10T04:29:02;8.95;;;4.35;;
32172;SDS011;18679;45.190;5.722;2023-06-10T04:32:04;8.43;;;4.57;;
32172;SDS011;18679;45.190;5.722;2023-06-10T04:35:07;11.93;;;5.90;;
32172;SDS011;18679;45.190;5.722;2023-06-10T04:38:08;16.00;;;5.13;;
32172;SDS011;18679;45.190;5.722;2023-06-10T04:41:10;10.82;;;5.15;;
32172;SDS011;18679;45.190;5.722;2023-06-10T04:44:11;7.85;;;4.85;;
32172;SDS011;18679;45.190;5.722;2023-06-10T04:47:14;8.68;;;4.38;;
32172;SDS011;18679;45.190;5.722;2023-06-10T04:50:18;10.75;;;4.45;;
32172;SDS011;18679;45.190;5.722;2023-06-10T04:53:19;9.98;;;4.50;;
32172;SDS011;18679;45.190;5.722;2023-06-10T04:56:21;9.77;;;4.85;;
32172;SDS011;18679;45.190;5.722;2023-06-10T04:59:22;6.72;;;4.00;;
32172;SDS011;18679;45.190;5.722;2023-06-10T05:02:23;8.55;;;4.90;;
32172;SDS011;18679;45.190;5.722;2023-06-10T05:05:23;9.88;;;5.30;;
32172;SDS011;18679;45.190;5.722;2023-06-10T05:08:24;9.80;;;4.47;;
32172;SDS011;18679;45.190;5.722;2023-06-10T05:11:25;7.63;;;4.60;;
32172;SDS011;18679;45.190;5.722;2023-06-10T05:14:26;8.48;;;4.95;;
32172;SDS011;18679;45.190;5.722;2023-06-10T05:17:27;7.60;;;5.25;;
32172;SDS011;18679;45.190;5.722;2023-06-10T05:20:28;9.18;;;4.80;;
32172;SDS011;18679;45.190;5.722;2023-06-10T05:23:29;9.07;;;4.78;;
32172;SDS011;18679;45.190;5.722;2023-06-10T05:26:30;17.17;;;4.90;;
32172;SDS011;18679;45.190;5.722;2023-06-10T05:29:37;11.90;;;4.72;;
32172;SDS011;18679;45.190;5.722;2023-06-10T05:32:38;9.10;;;4.97;;
32172;SDS011;18679;45.190;5.722;2023-06-10T05:35:39;12.20;;;5.47;;
32172;SDS011;18679;45.190;5.722;2023-06-10T05:38:40;12.30;;;4.82;;
32172;SDS011;18679;45.190;5.722;2023-06-10T05:41:41;15.40;;;5.25;;
32172;SDS011;18679;45.190;5.722;2023-06-10T05:44:42;12.70;;;4.82;;
32172;SDS011;18679;45.190;5.722;2023-06-10T05:47:43;9.18;;;5.00;;
32172;SDS011;18679;45.190;5.722;2023-06-10T05:50:44;12.23;;;5.38;;
32172;SDS011;18679;45.190;5.722;2023-06-10T05:53:48;13.50;;;5.22;;
32172;SDS011;18679;45.190;5.722;2023-06-10T05:56:49;11.65;;;5.30;;
32172;SDS011;18679;45.190;5.722;2023-06-10T05:59:50;10.60;;;5.05;;
32172;SDS011;18679;45.190;5.722;2023-06-10T06:02:50;9.85;;;4.68;;
32172;SDS011;18679;45.190;5.722;2023-06-10T06:05:52;11.73;;;5.45;;
32172;SDS011;18679;45.190;5.722;2023-06-10T06:08:53;10.93;;;5.65;;
32172;SDS011;18679;45.190;5.722;2023-06-10T06:11:54;9.73;;;5.30;;
32172;SDS011;18679;45.190;5.722;2023-06-10T06:14:55;12.82;;;5.70;;
32172;SDS011;18679;45.190;5.722;2023-06-10T06:17:56;9.48;;;5.68;;
32172;SDS011;18679;45.190;5.722;2023-06-10T06:20:56;11.38;;;5.57;;
32172;SDS011;18679;45.190;5.722;2023-06-10T06:23:58;10.80;;;6.15;;
32172;SDS011;18679;45.190;5.722;2023-06-10T06:26:59;20.27;;;6.32;;
32172;SDS011;18679;45.190;5.722;2023-06-10T06:30:00;8.77;;;5.05;;
32172;SDS011;18679;45.190;5.722;2023-06-10T06:33:01;8.23;;;5.45;;
32172;SDS011;18679;45.190;5.722;2023-06-10T06:36:02;13.55;;;5.55;;
32172;SDS011;18679;45.190;5.722;2023-06-10T06:39:03;11.13;;;5.38;;
32172;SDS011;18679;45.190;5.722;2023-06-10T06:42:05;16.40;;;5.45;;
32172;SDS011;18679;45.190;5.722;2023-06-10T06:45:25;13.90;;;5.32;;
32172;SDS011;18679;45.190;5.722;2023-06-10T06:48:25;11.27;;;5.80;;
32172;SDS011;18679;45.190;5.722;2023-06-10T06:51:26;14.45;;;5.70;;
32172;SDS011;18679;45.190;5.722;2023-06-10T06:54:27;12.63;;;5.85;;
32172;SDS011;18679;45.190;5.722;2023-06-10T06:57:29;11.80;;;5.45;;
32172;SDS011;18679;45.190;5.722;2023-06-10T07:00:30;15.57;;;5.55;;
32172;SDS011;18679;45.190;5.722;2023-06-10T07:03:31;10.23;;;6.07;;
32172;SDS011;18679;45.190;5.722;2023-06-10T07:06:32;12.63;;;5.65;;
32172;SDS011;18679;45.190;5.722;2023-06-10T07:09:33;10.13;;;5.22;;
32172;SDS011;18679;45.190;5.722;2023-06-10T07:12:34;10.10;;;5.70;;
32172;SDS011;18679;45.190;5.722;2023-06-10T07:15:35;9.85;;;4.93;;
32172;SDS011;18679;45.190;5.722;2023-06-10T07:18:36;18.13;;;5.75;;
32172;SDS011;18679;45.190;5.722;2023-06-10T07:21:37;11.73;;;5.65;;
32172;SDS011;18679;45.190;5.722;2023-06-10T07:24:38;15.93;;;5.43;;
32172;SDS011;18679;45.190;5.722;2023-06-10T07:27:38;7.70;;;4.30;;
32172;SDS011;18679;45.190;5.722;2023-06-10T07:30:39;7.93;;;4.90;;
32172;SDS011;18679;45.190;5.722;2023-06-10T07:33:40;9.07;;;4.55;;
32172;SDS011;18679;45.190;5.722;2023-06-10T07:36:41;13.65;;;5.22;;
32172;SDS011;18679;45.190;5.722;2023-06-10T07:39:42;11.77;;;5.70;;
32172;SDS011;18679;45.190;5.722;2023-06-10T07:42:43;7.93;;;4.93;;
32172;SDS011;18679;45.190;5.722;2023-06-10T07:45:44;12.38;;;4.90;;
32172;SDS011;18679;45.190;5.722;2023-06-10T07:48:45;7.13;;;4.32;;
32172;SDS011;18679;45.190;5.722;2023-06-10T07:51:46;7.32;;;4.78;;
32172;SDS011;18679;45.190;5.722;2023-06-10T07:54:47;13.13;;;5.05;;
32172;SDS011;18679;45.190;5.722;2023-06-10T07:57:47;9.77;;;5.13;;
32172;SDS011;18679;45.190;5.722;2023-06-10T08:00:48;11.88;;;4.60;;
32172;SDS011;18679;45.190;5.722;2023-06-10T08:03:49;8.85;;;4.70;;
32172;SDS011;18679;45.190;5.722;2023-06-10T08:06:50;10.15;;;4.70;;
32172;SDS011;18679;45.190;5.722;2023-06-10T08:09:51;6.70;;;4.32;;
32172;SDS011;18679;45.190;5.722;2023-06-10T08:12:52;5.85;;;3.90;;
32172;SDS011;18679;45.190;5.722;2023-06-10T08:15:53;10.10;;;4.70;;
32172;SDS011;18679;45.190;5.722;2023-06-10T08:18:55;10.30;;;4.38;;
32172;SDS011;18679;45.190;5.722;2023-06-10T08:21:56;8.50;;;4.30;;
32172;SDS011;18679;45.190;5.722;2023-06-10T08:24:57;9.55;;;4.20;;
32172;SDS011;18679;45.190;5.722;2023-06-10T08:27:57;6.57;;;4.15;;
32172;SDS011;18679;45.190;5.722;2023-06-10T08:30:58;6.53;;;4.05;;
32172;SDS011;18679;45.190;5.722;2023-06-10T08:33:59;8.10;;;4.07;;
32172;SDS011;18679;45.190;5.722;2023-06-10T08:37:00;7.07;;;4.10;;
32172;SDS011;18679;45.190;5.722;2023-06-10T08:40:01;12.48;;;3.83;;
32172;SDS011;18679;45.190;5.722;2023-06-10T08:43:06;9.98;;;3.30;;
32172;SDS011;18679;45.190;5.722;2023-06-10T08:46:09;7.85;;;3.38;;
32172;SDS011;18679;45.190;5.722;2023-06-10T08:49:10;6.30;;;3.25;;
32172;SDS011;18679;45.190;5.722;2023-06-10T08:52:17;5.63;;;2.97;;
32172;SDS011;18679;45.190;5.722;2023-06-10T08:58:32;5.65;;;3.72;;
32172;SDS011;18679;45.190;5.722;2023-06-10T09:01:42;5.00;;;3.45;;
32172;SDS011;18679;45.190;5.722;2023-06-10T09:04:44;5.20;;;3.38;;
32172;SDS011;18679;45.190;5.722;2023-06-10T09:07:46;5.55;;;3.45;;
32172;SDS011;18679;45.190;5.722;2023-06-10T09:10:48;9.40;;;4.47;;
32172;SDS011;18679;45.190;5.722;2023-06-10T09:13:49;4.53;;;3.15;;
32172;SDS011;18679;45.190;5.722;2023-06-10T09:16:50;6.63;;;3.72;;
32172;SDS011;18679;45.190;5.722;2023-06-10T09:19:52;6.68;;;3.65;;
32172;SDS011;18679;45.190;5.722;2023-06-10T09:22:55;6.07;;;3.42;;
32172;SDS011;18679;45.190;5.722;2023-06-10T09:25:56;5.25;;;3.10;;
32172;SDS011;18679;45.190;5.722;2023-06-10T09:29:02;4.43;;;2.78;;
32172;SDS011;18679;45.190;5.722;2023-06-10T09:32:05;3.60;;;2.60;;
32172;SDS011;18679;45.190;5.722;2023-06-10T09:35:10;8.55;;;3.35;;
32172;SDS011;18679;45.190;5.722;2023-06-10T09:38:11;6.45;;;3.20;;
32172;SDS011;18679;45.190;5.722;2023-06-10T09:41:13;6.30;;;2.83;;
32172;SDS011;18679;45.190;5.722;2023-06-10T09:44:16;5.60;;;3.15;;
32172;SDS011;18679;45.190;5.722;2023-06-10T09:47:21;5.60;;;2.97;;
32172;SDS011;18679;45.190;5.722;2023-06-10T09:50:22;9.05;;;3.28;;
32172;SDS011;18679;45.190;5.722;2023-06-10T09:53:24;9.27;;;3.33;;
32172;SDS011;18679;45.190;5.722;2023-06-10T09:56:34;9.05;;;3.05;;
32172;SDS011;18679;45.190;5.722;2023-06-10T09:59:37;9.20;;;2.83;;
32172;SDS011;18679;45.190;5.722;2023-06-10T10:02:48;5.90;;;2.92;;
32172;SDS011;18679;45.190;5.722;2023-06-10T10:05:57;6.30;;;2.45;;
32172;SDS011;18679;45.190;5.722;2023-06-10T10:08:59;6.35;;;2.33;;
32172;SDS011;18679;45.190;5.722;2023-06-10T10:12:01;4.63;;;1.98;;
32172;SDS011;18679;45.190;5.722;2023-06-10T10:15:02;5.13;;;2.60;;
32172;SDS011;18679;45.190;5.722;2023-06-10T10:18:13;5.22;;;2.20;;
32172;SDS011;18679;45.190;5.722;2023-06-10T10:21:23;4.30;;;2.30;;
32172;SDS011;18679;45.190;5.722;2023-06-10T10:24:38;3.55;;;2.20;;
32172;SDS011;18679;45.190;5.722;2023-06-10T10:27:44;4.72;;;2.35;;
32172;SDS011;18679;45.190;5.722;2023-06-10T10:30:50;4.35;;;2.38;;
32172;SDS011;18679;45.190;5.722;2023-06-10T10:33:58;4.93;;;2.50;;
32172;SDS011;18679;45.190;5.722;2023-06-10T10:37:00;5.93;;;2.33;;
32172;SDS011;18679;45.190;5.722;2023-06-10T10:40:01;4.32;;;1.67;;
32172;SDS011;18679;45.190;5.722;2023-06-10T10:43:03;4.97;;;1.52;;
32172;SDS011;18679;45.190;5.722;2023-06-10T10:46:11;6.57;;;1.90;;
32172;SDS011;18679;45.190;5.722;2023-06-10T10:49:17;3.90;;;1.45;;
32172;SDS011;18679;45.190;5.722;2023-06-10T10:52:19;2.85;;;1.70;;
32172;SDS011;18679;45.190;5.722;2023-06-10T10:55:20;3.55;;;1.70;;
32172;SDS011;18679;45.190;5.722;2023-06-10T10:58:24;3.45;;;1.48;;
32172;SDS011;18679;45.190;5.722;2023-06-10T11:01:25;3.80;;;1.60;;
32172;SDS011;18679;45.190;5.722;2023-06-10T11:04:44;3.47;;;1.60;;
32172;SDS011;18679;45.190;5.722;2023-06-10T11:07:53;2.42;;;1.52;;
32172;SDS011;18679;45.190;5.722;2023-06-10T11:10:57;3.35;;;1.73;;
32172;SDS011;18679;45.190;5.722;2023-06-10T11:17:02;3.67;;;1.30;;
32172;SDS011;18679;45.190;5.722;2023-06-10T11:20:41;1.92;;;1.40;;
32172;SDS011;18679;45.190;5.722;2023-06-10T11:23:51;2.22;;;1.30;;
32172;SDS011;18679;45.190;5.722;2023-06-10T11:26:52;1.65;;;0.98;;
32172;SDS011;18679;45.190;5.722;2023-06-10T11:33:05;2.50;;;1.10;;
32172;SDS011;18679;45.190;5.722;2023-06-10T11:36:07;3.80;;;1.40;;
32172;SDS011;18679;45.190;5.722;2023-06-10T11:39:08;4.30;;;1.40;;
32172;SDS011;18679;45.190;5.722;2023-06-10T11:42:10;1.77;;;1.02;;
32172;SDS011;18679;45.190;5.722;2023-06-10T11:45:14;1.20;;;1.10;;
32172;SDS011;18679;45.190;5.722;2023-06-10T11:48:19;2.10;;;1.27;;
32172;SDS011;18679;45.190;5.722;2023-06-10T11:51:20;5.40;;;1.20;;
32172;SDS011;18679;45.190;5.722;2023-06-10T11:54:21;2.92;;;1.17;;
32172;SDS011;18679;45.190;5.722;2023-06-10T11:57:22;1.52;;;0.93;;
32172;SDS011;18679;45.190;5.722;2023-06-10T12:00:23;2.25;;;1.33;;
32172;SDS011;18679;45.190;5.722;2023-06-10T12:03:25;2.83;;;1.38;;
32172;SDS011;18679;45.190;5.722;2023-06-10T12:06:26;3.67;;;1.67;;
32172;SDS011;18679;45.190;5.722;2023-06-10T12:09:28;3.17;;;1.33;;
32172;SDS011;18679;45.190;5.722;2023-06-10T12:12:29;2.17;;;1.17;;
32172;SDS011;18679;45.190;5.722;2023-06-10T12:15:30;2.53;;;1.52;;
32172;SDS011;18679;45.190;5.722;2023-06-10T12:18:32;2.72;;;1.98;;
32172;SDS011;18679;45.190;5.722;2023-06-10T12:21:34;1.70;;;1.20;;
32172;SDS011;18679;45.190;5.722;2023-06-10T12:24:57;2.70;;;1.38;;
32172;SDS011;18679;45.190;5.722;2023-06-10T12:28:03;1.98;;;1.52;;
32172;SDS011;18679;45.190;5.722;2023-06-10T12:31:07;3.78;;;1.65;;
32172;SDS011;18679;45.190;5.722;2023-06-10T12:34:08;4.13;;;1.45;;
32172;SDS011;18679;45.190;5.722;2023-06-10T12:37:10;2.45;;;1.70;;
32172;SDS011;18679;45.190;5.722;2023-06-10T12:40:15;3.35;;;1.40;;
32172;SDS011;18679;45.190;5.722;2023-06-10T12:43:23;5.38;;;1.77;;
32172;SDS011;18679;45.190;5.722;2023-06-10T12:49:24;4.28;;;1.10;;
32172;SDS011;18679;45.190;5.722;2023-06-10T12:52:26;2.30;;;1.15;;
32172;SDS011;18679;45.190;5.722;2023-06-10T12:55:27;3.78;;;1.20;;
32172;SDS011;18679;45.190;5.722;2023-06-10T12:58:29;2.63;;;1.23;;
32172;SDS011;18679;45.190;5.722;2023-06-10T13:01:29;2.58;;;1.40;;
32172;SDS011;18679;45.190;5.722;2023-06-10T13:04:31;2.08;;;1.40;;
32172;SDS011;18679;45.190;5.722;2023-06-10T13:07:32;2.50;;;1.38;;
32172;SDS011;18679;45.190;5.722;2023-06-10T13:10:33;1.60;;;1.27;;
32172;SDS011;18679;45.190;5.722;2023-06-10T13:13:36;2.17;;;1.27;;
32172;SDS011;18679;45.190;5.722;2023-06-10T13:16:37;1.58;;;1.17;;
32172;SDS011;18679;45.190;5.722;2023-06-10T13:19:38;5.93;;;1.25;;
32172;SDS011;18679;45.190;5.722;2023-06-10T13:22:39;3.63;;;1.08;;
32172;SDS011;18679;45.190;5.722;2023-06-10T13:25:40;2.25;;;1.48;;
32172;SDS011;18679;45.190;5.722;2023-06-10T13:28:44;0.80;;;0.80;;
32172;SDS011;18679;45.190;5.722;2023-06-10T13:31:45;3.33;;;1.10;;
32172;SDS011;18679;45.190;5.722;2023-06-10T13:34:46;4.55;;;1.15;;
32172;SDS011;18679;45.190;5.722;2023-06-10T13:37:47;1.55;;;1.10;;
32172;SDS011;18679;45.190;5.722;2023-06-10T13:40:48;2.03;;;1.27;;
32172;SDS011;18679;45.190;5.722;2023-06-10T13:43:49;2.22;;;1.30;;
32172;SDS011;18679;45.190;5.722;2023-06-10T13:46:50;2.35;;;1.33;;
32172;SDS011;18679;45.190;5.722;2023-06-10T13:49:51;2.35;;;1.27;;
32172;SDS011;18679;45.190;5.722;2023-06-10T13:52:52;1.55;;;1.10;;
32172;SDS011;18679;45.190;5.722;2023-06-10T13:55:53;2.33;;;1.10;;
32172;SDS011;18679;45.190;5.722;2023-06-10T13:58:54;1.25;;;0.93;;
32172;SDS011;18679;45.190;5.722;2023-06-10T14:01:54;1.38;;;1.00;;
32172;SDS011;18679;45.190;5.722;2023-06-10T14:04:56;6.38;;;1.10;;
32172;SDS011;18679;45.190;5.722;2023-06-10T14:07:58;3.95;;;1.23;;
32172;SDS011;18679;45.190;5.722;2023-06-10T14:10:59;2.58;;;1.02;;
32172;SDS011;18679;45.190;5.722;2023-06-10T14:14:00;2.83;;;1.20;;
32172;SDS011;18679;45.190;5.722;2023-06-10T14:17:01;1.52;;;0.95;;
32172;SDS011;18679;45.190;5.722;2023-06-10T14:20:03;1.55;;;1.00;;
32172;SDS011;18679;45.190;5.722;2023-06-10T14:23:04;2.58;;;1.27;;
32172;SDS011;18679;45.190;5.722;2023-06-10T14:26:05;2.10;;;1.33;;
32172;SDS011;18679;45.190;5.722;2023-06-10T14:29:07;3.95;;;1.00;;
32172;SDS011;18679;45.190;5.722;2023-06-10T14:32:08;2.67;;;1.40;;
32172;SDS011;18679;45.190;5.722;2023-06-10T14:35:10;2.10;;;1.20;;
32172;SDS011;18679;45.190;5.722;2023-06-10T14:38:11;5.18;;;1.33;;
32172;SDS011;18679;45.190;5.722;2023-06-10T14:41:12;3.00;;;1.40;;
32172;SDS011;18679;45.190;5.722;2023-06-10T14:44:13;3.67;;;1.30;;
32172;SDS011;18679;45.190;5.722;2023-06-10T14:47:14;2.90;;;1.23;;
32172;SDS011;18679;45.190;5.722;2023-06-10T14:50:15;4.28;;;1.20;;
32172;SDS011;18679;45.190;5.722;2023-06-10T14:53:16;3.30;;;1.20;;
32172;SDS011;18679;45.190;5.722;2023-06-10T14:56:18;2.55;;;1.20;;
32172;SDS011;18679;45.190;5.722;2023-06-10T14:59:19;4.25;;;1.33;;
32172;SDS011;18679;45.190;5.722;2023-06-10T15:02:20;3.17;;;1.42;;
32172;SDS011;18679;45.190;5.722;2023-06-10T15:05:20;5.75;;;1.20;;
32172;SDS011;18679;45.190;5.722;2023-06-10T15:08:21;1.27;;;1.17;;
32172;SDS011;18679;45.190;5.722;2023-06-10T15:11:22;2.22;;;1.10;;
32172;SDS011;18679;45.190;5.722;2023-06-10T15:14:23;4.75;;;1.65;;
32172;SDS011;18679;45.190;5.722;2023-06-10T15:17:24;3.10;;;1.27;;
32172;SDS011;18679;45.190;5.722;2023-06-10T15:20:25;3.58;;;1.33;;
32172;SDS011;18679;45.190;5.722;2023-06-10T15:23:26;2.85;;;1.30;;
32172;SDS011;18679;45.190;5.722;2023-06-10T15:26:26;1.40;;;1.20;;
32172;SDS011;18679;45.190;5.722;2023-06-10T15:29:27;1.88;;;1.40;;
32172;SDS011;18679;45.190;5.722;2023-06-10T15:32:28;3.85;;;1.80;;
32172;SDS011;18679;45.190;5.722;2023-06-10T15:35:29;3.08;;;1.40;;
32172;SDS011;18679;45.190;5.722;2023-06-10T15:38:31;3.80;;;1.40;;
32172;SDS011;18679;45.190;5.722;2023-06-10T15:41:33;1.92;;;1.10;;
32172;SDS011;18679;45.190;5.722;2023-06-10T15:44:34;4.03;;;1.35;;
32172;SDS011;18679;45.190;5.722;2023-06-10T15:47:35;5.85;;;1.33;;
32172;SDS011;18679;45.190;5.722;2023-06-10T15:50:36;4.93;;;1.50;;
32172;SDS011;18679;45.190;5.722;2023-06-10T15:53:36;3.53;;;1.10;;
32172;SDS011;18679;45.190;5.722;2023-06-10T15:56:37;1.80;;;1.20;;
32172;SDS011;18679;45.190;5.722;2023-06-10T15:59:40;3.13;;;1.20;;
32172;SDS011;18679;45.190;5.722;2023-06-10T16:02:40;1.95;;;1.38;;
32172;SDS011;18679;45.190;5.722;2023-06-10T16:05:42;1.40;;;1.10;;
32172;SDS011;18679;45.190;5.722;2023-06-10T16:08:43;1.83;;;1.25;;
32172;SDS011;18679;45.190;5.722;2023-06-10T16:11:44;2.22;;;1.38;;
32172;SDS011;18679;45.190;5.722;2023-06-10T16:14:44;1.30;;;1.10;;
32172;SDS011;18679;45.190;5.722;2023-06-10T16:17:45;1.63;;;0.85;;
32172;SDS011;18679;45.190;5.722;2023-06-10T16:20:47;2.95;;;1.20;;
32172;SDS011;18679;45.190;5.722;2023-06-10T16:23:48;5.22;;;1.85;;
32172;SDS011;18679;45.190;5.722;2023-06-10T16:26:49;2.42;;;1.45;;
32172;SDS011;18679;45.190;5.722;2023-06-10T16:29:51;2.28;;;1.65;;
32172;SDS011;18679;45.190;5.722;2023-06-10T16:32:52;3.03;;;1.40;;
32172;SDS011;18679;45.190;5.722;2023-06-10T16:35:53;2.17;;;1.45;;
32172;SDS011;18679;45.190;5.722;2023-06-10T16:38:54;3.95;;;1.20;;
32172;SDS011;18679;45.190;5.722;2023-06-10T16:41:55;2.50;;;1.30;;
32172;SDS011;18679;45.190;5.722;2023-06-10T16:44:56;4.55;;;1.27;;
32172;SDS011;18679;45.190;5.722;2023-06-10T16:47:57;2.08;;;1.30;;
32172;SDS011;18679;45.190;5.722;2023-06-10T16:50:57;2.70;;;1.30;;
32172;SDS011;18679;45.190;5.722;2023-06-10T16:53:58;2.30;;;1.30;;
32172;SDS011;18679;45.190;5.722;2023-06-10T16:56:59;3.67;;;1.55;;
32172;SDS011;18679;45.190;5.722;2023-06-10T17:00:00;2.45;;;1.10;;
32172;SDS011;18679;45.190;5.722;2023-06-10T17:03:01;5.47;;;2.20;;
32172;SDS011;18679;45.190;5.722;2023-06-10T17:06:02;3.40;;;1.60;;
32172;SDS011;18679;45.190;5.722;2023-06-10T17:09:03;3.28;;;1.63;;
32172;SDS011;18679;45.190;5.722;2023-06-10T17:12:04;3.33;;;1.08;;
32172;SDS011;18679;45.190;5.722;2023-06-10T17:15:06;5.20;;;2.50;;
32172;SDS011;18679;45.190;5.722;2023-06-10T17:18:07;3.85;;;1.63;;
32172;SDS011;18679;45.190;5.722;2023-06-10T17:21:08;3.65;;;1.02;;
32172;SDS011;18679;45.190;5.722;2023-06-10T17:24:09;4.07;;;1.50;;
32172;SDS011;18679;45.190;5.722;2023-06-10T17:27:10;6.18;;;2.25;;
32172;SDS011;18679;45.190;5.722;2023-06-10T17:30:11;2.78;;;1.52;;
32172;SDS011;18679;45.190;5.722;2023-06-10T17:33:12;5.47;;;1.48;;
32172;SDS011;18679;45.190;5.722;2023-06-10T17:36:13;2.20;;;1.40;;
32172;SDS011;18679;45.190;5.722;2023-06-10T17:39:14;5.30;;;1.40;;
32172;SDS011;18679;45.190;5.722;2023-06-10T17:42:15;1.70;;;1.27;;
32172;SDS011;18679;45.190;5.722;2023-06-10T17:45:16;1.65;;;1.27;;
32172;SDS011;18679;45.190;5.722;2023-06-10T17:48:17;3.53;;;1.48;;
32172;SDS011;18679;45.190;5.722;2023-06-10T17:51:18;2.33;;;1.40;;
32172;SDS011;18679;45.190;5.722;2023-06-10T17:54:18;1.92;;;1.33;;
32172;SDS011;18679;45.190;5.722;2023-06-10T17:57:19;2.35;;;1.20;;
32172;SDS011;18679;45.190;5.722;2023-06-10T18:00:20;6.05;;;1.10;;
32172;SDS011;18679;45.190;5.722;2023-06-10T18:03:23;2.50;;;1.15;;
32172;SDS011;18679;45.190;5.722;2023-06-10T18:06:26;2.65;;;1.90;;
32172;SDS011;18679;45.190;5.722;2023-06-10T18:09:27;4.90;;;1.75;;
32172;SDS011;18679;45.190;5.722;2023-06-10T18:12:28;3.15;;;1.33;;
32172;SDS011;18679;45.190;5.722;2023-06-10T18:15:28;2.65;;;1.55;;
32172;SDS011;18679;45.190;5.722;2023-06-10T18:18:30;2.90;;;1.60;;
32172;SDS011;18679;45.190;5.722;2023-06-10T18:21:30;3.10;;;1.40;;
32172;SDS011;18679;45.190;5.722;2023-06-10T18:24:32;5.30;;;1.80;;
32172;SDS011;18679;45.190;5.722;2023-06-10T18:27:33;3.53;;;1.80;;
32172;SDS011;18679;45.190;5.722;2023-06-10T18:30:35;4.82;;;1.80;;